createdAt,value
2024-02-10T00:01:25.662Z,9.24
2024-02-10T00:06:32.086Z,9.23
2024-02-10T00:11:37.717Z,9.20
2024-02-10T00:16:42.161Z,9.20
2024-02-10T00:21:46.792Z,9.18
2024-02-10T00:26:49.673Z,9.17
2024-02-10T00:31:54.235Z,9.14
2024-02-10T00:36:57.629Z,9.16
2024-02-10T00:42:00.980Z,9.15
2024-02-10T00:47:10.917Z,9.16
2024-02-10T00:52:18.423Z,9.16
2024-02-10T00:57:21.372Z,9.14
2024-02-10T01:02:25.689Z,9.14
2024-02-10T01:07:31.301Z,9.14
2024-02-10T01:12:34.744Z,9.14
2024-02-10T01:17:39.026Z,9.12
2024-02-10T01:22:42.843Z,9.09
2024-02-10T01:27:47.292Z,9.08
2024-02-10T01:32:52.281Z,9.07
2024-02-10T01:37:57.123Z,9.09
2024-02-10T01:43:00.761Z,9.05
2024-02-10T01:48:09.909Z,9.05
2024-02-10T01:53:13.183Z,9.06
2024-02-10T01:58:16.829Z,9.02
2024-02-10T02:03:21.187Z,9.01
2024-02-10T02:08:25.758Z,9.04
2024-02-10T02:13:31.272Z,9.03
2024-02-10T02:18:36.932Z,9.07
2024-02-10T02:23:42.409Z,9.05
2024-02-10T02:28:46.753Z,9.03
2024-02-10T02:33:50.912Z,9.04
2024-02-10T02:38:55.627Z,9.07
2024-02-10T02:43:58.678Z,9.06
2024-02-10T02:49:01.864Z,9.09
2024-02-10T02:54:07.038Z,9.11
2024-02-10T02:59:09.954Z,9.10
2024-02-10T03:04:17.100Z,9.11
2024-02-10T03:09:21.376Z,9.08
2024-02-10T03:14:24.673Z,9.11
2024-02-10T03:19:28.133Z,9.12
2024-02-10T03:24:33.953Z,9.10
2024-02-10T03:29:37.740Z,9.11
2024-02-10T03:34:41.076Z,9.10
2024-02-10T03:39:45.365Z,9.13
2024-02-10T03:44:48.701Z,9.11
2024-02-10T03:49:51.872Z,9.14
2024-02-10T03:54:56.141Z,9.14
2024-02-10T04:00:00.264Z,9.12
2024-02-10T04:05:04.791Z,9.13
2024-02-10T04:10:13.701Z,9.14
2024-02-10T04:15:16.937Z,9.14
2024-02-10T04:20:21.200Z,9.14
2024-02-10T04:25:26.444Z,9.15
2024-02-10T04:30:29.371Z,9.14
2024-02-10T04:35:32.961Z,9.13
2024-02-10T04:40:37.386Z,9.08
2024-02-10T04:45:41.646Z,9.07
2024-02-10T04:50:44.477Z,9.03
2024-02-10T04:55:48.728Z,9.03
2024-02-10T05:00:52.037Z,9.02
2024-02-10T05:05:54.927Z,9.03
2024-02-10T05:10:59.426Z,9.02
2024-02-10T05:16:02.332Z,9.03
2024-02-10T05:21:06.801Z,9.02
2024-02-10T05:26:10.987Z,9.00
2024-02-10T05:31:13.862Z,8.98
2024-02-10T05:36:16.805Z,8.96
2024-02-10T05:41:20.970Z,8.97
2024-02-10T05:46:24.416Z,8.98
2024-02-10T05:51:28.043Z,8.97
2024-02-10T05:56:32.404Z,8.93
2024-02-10T06:01:37.119Z,8.91
2024-02-10T06:06:42.678Z,8.87
2024-02-10T06:11:47.046Z,8.87
2024-02-10T06:16:51.174Z,8.90
2024-02-10T06:21:54.759Z,8.90
2024-02-10T06:26:58.957Z,8.88
2024-02-10T06:32:02.580Z,8.85
2024-02-10T06:37:06.585Z,8.81
2024-02-10T06:42:11.228Z,8.77
2024-02-10T06:47:16.711Z,8.71
2024-02-10T06:52:21.220Z,8.64
2024-02-10T06:57:25.423Z,8.58
2024-02-10T07:02:28.945Z,8.51
2024-02-10T07:07:33.794Z,8.47
2024-02-10T07:12:38.057Z,8.53
2024-02-10T07:17:44.454Z,8.56
2024-02-10T07:22:50.620Z,8.61
2024-02-10T07:28:02.015Z,8.65
2024-02-10T07:33:11.539Z,8.75
2024-02-10T07:38:15.505Z,8.84
2024-02-10T07:43:20.001Z,8.90
2024-02-10T07:48:23.639Z,9.05
2024-02-10T07:53:27.065Z,9.19
2024-02-10T07:58:31.358Z,9.40
2024-02-10T08:03:34.318Z,9.45
2024-02-10T08:08:37.610Z,9.49
2024-02-10T08:13:42.716Z,9.64
2024-02-10T08:18:45.756Z,9.82
2024-02-10T08:23:53.346Z,10.02
2024-02-10T08:28:58.507Z,10.03
2024-02-10T08:34:01.656Z,10.21
2024-02-10T08:39:05.487Z,10.22
2024-02-10T08:44:10.097Z,10.20
2024-02-10T08:49:15.913Z,10.25
2024-02-10T08:54:18.894Z,10.35
2024-02-10T08:59:23.681Z,10.36
2024-02-10T09:04:26.577Z,10.54
2024-02-10T09:09:30.074Z,10.57
2024-02-10T09:14:36.631Z,10.52
2024-02-10T09:19:39.694Z,10.39
2024-02-10T09:24:42.603Z,10.38
2024-02-10T09:29:47.712Z,10.48
2024-02-10T09:34:53.365Z,10.72
2024-02-10T09:39:57.197Z,11.01
2024-02-10T09:45:01.626Z,11.13
2024-02-10T09:50:06.295Z,11.37
2024-02-10T09:55:09.805Z,11.62
2024-02-10T10:00:16.919Z,11.15
2024-02-10T10:05:21.121Z,11.17
2024-02-10T10:10:28.386Z,11.17
2024-02-10T10:15:36.260Z,11.07
2024-02-10T10:20:39.256Z,11.05
2024-02-10T10:25:45.311Z,11.11
2024-02-10T10:30:50.053Z,11.09
2024-02-10T10:35:56.082Z,10.98
2024-02-10T10:41:00.831Z,11.18
2024-02-10T10:46:07.869Z,11.21
2024-02-10T10:51:13.196Z,11.20
2024-02-10T10:56:23.623Z,11.17
2024-02-10T11:01:29.933Z,11.10
2024-02-10T11:06:34.413Z,11.52
2024-02-10T11:11:40.216Z,11.54
2024-02-10T11:16:44.715Z,11.81
2024-02-10T11:21:48.527Z,11.62
2024-02-10T11:26:51.875Z,11.50
2024-02-10T11:32:02.860Z,11.46
2024-02-10T11:37:05.986Z,11.67
2024-02-10T11:42:09.827Z,11.90
2024-02-10T11:47:14.357Z,11.73
2024-02-10T11:52:17.371Z,11.54
2024-02-10T11:57:23.706Z,11.73
2024-02-10T12:02:28.405Z,12.02
2024-02-10T12:07:32.862Z,12.12
2024-02-10T12:12:36.784Z,12.04
2024-02-10T12:17:41.174Z,11.84
2024-02-10T12:22:44.746Z,11.84
2024-02-10T12:27:48.186Z,11.95
2024-02-10T12:32:53.175Z,12.12
2024-02-10T12:37:56.107Z,12.15
2024-02-10T12:43:00.357Z,12.09
2024-02-10T12:48:07.032Z,12.43
2024-02-10T12:53:10.269Z,12.27
2024-02-10T12:58:13.699Z,12.19
2024-02-10T13:03:21.069Z,12.24
2024-02-10T13:08:24.397Z,12.27
2024-02-10T13:13:27.301Z,12.30
2024-02-10T13:18:35.864Z,12.21
2024-02-10T13:23:44.561Z,12.22
2024-02-10T13:28:49.451Z,12.21
2024-02-10T13:33:55.278Z,12.14
2024-02-10T13:39:16.039Z,12.30
2024-02-10T13:44:36.509Z,12.14
2024-02-10T13:50:02.971Z,12.13
2024-02-10T13:55:23.486Z,11.96
2024-02-10T14:00:31.055Z,11.91
2024-02-10T14:05:56.211Z,11.95
2024-02-10T14:11:01.506Z,11.70
2024-02-10T14:16:07.755Z,11.93
2024-02-10T14:21:19.319Z,11.98
2024-02-10T14:26:38.189Z,11.84
2024-02-10T14:31:49.491Z,11.80
2024-02-10T14:36:56.991Z,11.80
2024-02-10T14:42:00.754Z,11.72
2024-02-10T14:47:03.799Z,11.75
2024-02-10T14:52:08.849Z,11.65
2024-02-10T14:57:16.341Z,11.48
2024-02-10T15:02:23.956Z,11.60
2024-02-10T15:07:28.471Z,11.51
2024-02-10T15:12:31.945Z,11.51
2024-02-10T15:17:34.860Z,11.34
2024-02-10T15:22:42.222Z,11.36
2024-02-10T15:27:45.912Z,11.29
2024-02-10T15:32:49.031Z,11.31
2024-02-10T15:37:53.299Z,11.29
2024-02-10T15:42:57.843Z,11.35
2024-02-10T15:48:00.872Z,11.26
2024-02-10T15:53:05.569Z,11.23
2024-02-10T15:58:17.027Z,11.21
2024-02-10T16:03:22.831Z,11.12
2024-02-10T16:08:27.394Z,10.98
2024-02-10T16:13:32.811Z,10.92
2024-02-10T16:18:38.130Z,10.86
2024-02-10T16:23:43.448Z,10.80
2024-02-10T16:28:48.558Z,10.73
2024-02-10T16:33:53.769Z,10.64
2024-02-10T16:39:01.098Z,10.58
2024-02-10T16:44:05.198Z,10.51
2024-02-10T16:49:10.010Z,10.42
2024-02-10T16:54:14.314Z,10.38
2024-02-10T16:59:17.517Z,10.37
2024-02-10T17:04:23.204Z,10.34
2024-02-10T17:09:28.242Z,10.32
2024-02-10T17:14:31.839Z,10.27
2024-02-10T17:19:35.295Z,10.26
2024-02-10T17:24:39.846Z,10.23
2024-02-10T17:29:43.952Z,10.20
2024-02-10T17:34:46.851Z,10.17
2024-02-10T17:39:54.544Z,10.16
2024-02-10T17:44:58.812Z,10.11
2024-02-10T17:50:06.442Z,10.07
2024-02-10T17:55:10.741Z,10.07
2024-02-10T18:00:17.103Z,10.06
2024-02-10T18:05:26.437Z,10.07
2024-02-10T18:10:31.077Z,10.04
2024-02-10T18:15:34.208Z,10.03
2024-02-10T18:20:38.799Z,10.04
2024-02-10T18:25:44.743Z,10.07
2024-02-10T18:30:49.668Z,10.11
2024-02-10T18:35:53.451Z,10.12
2024-02-10T18:40:57.735Z,10.13
2024-02-10T18:46:01.086Z,10.15
2024-02-10T18:51:04.223Z,10.16
2024-02-10T18:56:09.403Z,10.15
2024-02-10T19:01:13.021Z,10.11
2024-02-10T19:06:17.521Z,10.08
2024-02-10T19:11:21.931Z,10.07
2024-02-10T19:16:29.057Z,10.06
2024-02-10T19:21:32.086Z,10.04
2024-02-10T19:26:37.395Z,10.03
2024-02-10T19:31:41.936Z,10.00
2024-02-10T19:36:45.102Z,9.98
2024-02-10T19:41:50.758Z,9.94
2024-02-10T19:46:53.791Z,9.93
2024-02-10T19:51:59.407Z,9.92
2024-02-10T19:57:03.704Z,9.91
2024-02-10T20:02:09.004Z,9.86
2024-02-10T20:07:12.093Z,9.81
2024-02-10T20:12:17.722Z,9.77
2024-02-10T20:17:21.783Z,9.75
2024-02-10T20:22:25.358Z,9.68
2024-02-10T20:27:29.650Z,9.66
2024-02-10T20:32:33.963Z,9.65
2024-02-10T20:37:37.602Z,9.64
2024-02-10T20:42:42.409Z,9.63
2024-02-10T20:47:48.635Z,9.56
2024-02-10T20:52:52.608Z,9.51
2024-02-10T20:57:59.078Z,9.42
2024-02-10T21:03:05.027Z,9.42
2024-02-10T21:08:09.138Z,9.39
2024-02-10T21:13:14.221Z,9.38
2024-02-10T21:18:17.278Z,9.35
2024-02-10T21:23:20.906Z,9.28
2024-02-10T21:28:26.881Z,9.25
2024-02-10T21:33:33.046Z,9.21
2024-02-10T21:38:40.186Z,9.19
2024-02-10T21:43:44.656Z,9.14
2024-02-10T21:48:47.679Z,9.09
2024-02-10T21:53:51.614Z,9.05
2024-02-10T22:04:05.194Z,9.03
2024-02-10T22:09:08.519Z,8.99
2024-02-10T22:14:12.825Z,8.92
2024-02-10T22:19:17.335Z,8.83
2024-02-10T22:24:21.163Z,8.72
2024-02-10T22:29:25.980Z,8.70
2024-02-10T22:34:30.689Z,8.63
2024-02-10T22:39:39.803Z,8.57
2024-02-10T22:44:44.757Z,8.50
2024-02-10T22:49:49.260Z,8.53
2024-02-10T22:54:53.441Z,8.55
2024-02-10T22:59:57.918Z,8.56
2024-02-10T23:05:07.317Z,8.60
2024-02-10T23:10:13.151Z,8.63
2024-02-10T23:15:22.844Z,8.65
2024-02-10T23:20:26.948Z,8.66
2024-02-10T23:25:31.574Z,8.63
2024-02-10T23:30:39.353Z,8.65
2024-02-10T23:35:43.225Z,8.65
2024-02-10T23:40:47.166Z,8.71
2024-02-10T23:45:51.616Z,8.73
2024-02-10T23:50:54.470Z,8.73
2024-02-10T23:55:58.387Z,8.74
